cover

Dysart - Lightspeed (Original Mix)

Get it on iTunes StoreListen on Apple Music

Trackname / Key / BPM / Publish dateArtists, Remixers / Label
127 bpm, 2A / Eb minor, 2019-11-01, Techno,  1  11

Tracks in release Select 03

#Trackname / Key / BPM / Publish dateArtists, Remixers / Label
1 127 bpm, 8A / A minor, 2019-11-01, Techno,  0  11
2 129 bpm, 10B / D major, 2019-11-01, Techno,  4  11
3 128 bpm, 7A / D minor, 2019-11-01, Techno,  0  11
4 128 bpm, 2B / F# major, 2019-11-01, Techno,  0  11
5 125 bpm, 8A / A minor, 2019-11-01, Techno,  3  11
6 128 bpm, 8A / A minor, 2019-11-01, Techno,  11  11
7 130 bpm, 7B / F major, 2019-11-01, Techno,  0  11
8 128 bpm, 8A / A minor, 2019-11-01, Techno,  0  11
9 133 bpm, 11B / A major, 2019-11-01, Techno,  1  11
10 127 bpm, 2A / Eb minor, 2019-11-01, Techno,  1  11
11 134 bpm, 11A / F# minor, 2019-11-01, Techno,  0  11

Recommendations

#Trackname / Key / BPM / Publish dateArtists, Remixers / Label
1 130 bpm, 2A / Eb minor, 2019-11-01, Techno,  19  1   5
1
2 125 bpm, 11B / A major, 2019-11-01, Techno,  18  1   3
3 128 bpm, 5A / C minor, 2019-10-18, Techno,  15  1   2
2
4 130 bpm, 8A / A minor, 2019-10-21, Techno,  11  1   4
5 130 bpm, 8A / A minor, 2019-11-15, Techno,  10  1   2
6 134 bpm, 1B / B major, 2019-11-01, Techno,  8  1   5
7 135 bpm, 7A / D minor, 2019-01-25, Techno,  8  1   4
8 130 bpm, 2A / Eb minor, 2019-10-18, Techno,  8  1   4
9 136 bpm, 9B / G major, 2019-10-28, Techno,  6  1   3
10 132 bpm, 10B / D major, 2019-11-01, Techno,  5  1   4
11 133 bpm, 3A / Bb minor, 2019-11-04, Techno,  5  1   4
12 133 bpm, 3B / Db major, 2019-11-01, Techno,  5  1   5
13 129 bpm, 10A / B minor, 2019-11-25, Techno,  4  1   1
14 140 bpm, 10A / B minor, 2019-10-14, Techno,  1  1   5

Charts

ArtistTitleGenresPublish date
FRANKYEFFEDetermination / Tiger / RunTechno 2019-11-05
×

Sign in

Sign in to access your personalized pages, follow artists and labels you love, and create playlists fromyour favorite tracks.

Please wait...